Time;durP1;ratioP1;P1;durP2;ratioP2;P2;SDS_P1;SDS_P2;PMS_P1;PMS_P2;Temp;Humidity;BMP_temperature;BMP_pressure;BME280_temperature;BME280_humidity;BME280_pressure;Samples;Min_cycle;Max_cycle;Signal;HPM_P1;HPM_P2
2022/04/12 00:00:05;;;;;;;6.67;5.97;;;10.40;95.10;;;;;;5073487;28;20444;-58
2022/04/12 00:02:32;;;;;;;6.50;5.70;;;10.40;95.10;;;;;;5073175;28;20505;-58
2022/04/12 00:05:00;;;;;;;8.07;6.30;;;10.30;95.40;;;;;;5073646;28;20455;-58
2022/04/12 00:07:28;;;;;;;7.20;5.83;;;10.20;95.70;;;;;;5073000;28;20978;-58
2022/04/12 00:09:55;;;;;;;7.40;5.93;;;10.10;96.20;;;;;;5073426;28;20498;-58
2022/04/12 00:12:22;;;;;;;9.60;6.27;;;10.00;96.90;;;;;;5073212;28;20935;-58
2022/04/12 00:14:49;;;;;;;7.97;6.20;;;10.00;96.90;;;;;;5073373;28;20478;-58
2022/04/12 00:20:02;;;;;;;7.13;5.87;;;10.10;97.50;;;;;;5073158;28;20404;-58
2022/04/12 00:22:30;;;;;;;6.57;5.70;;;10.10;98.20;;;;;;5073060;28;20477;-58
2022/04/12 00:24:59;;;;;;;6.83;5.77;;;10.10;98.40;;;;;;5072957;28;20450;-58
2022/04/12 00:27:27;;;;;;;7.23;6.10;;;10.10;98.50;;;;;;5072921;28;20468;-58
2022/04/12 00:29:54;;;;;;;9.83;5.87;;;10.00;98.50;;;;;;5072739;28;20545;-58
2022/04/12 00:32:21;;;;;;;7.90;7.00;;;9.90;99.40;;;;;;5073195;28;20441;-58
2022/04/12 00:34:48;;;;;;;8.90;6.33;;;9.90;99.90;;;;;;5073199;28;20451;-58
2022/04/12 00:37:17;;;;;;;8.13;6.40;;;9.80;99.90;;;;;;5073240;28;20472;-58
2022/04/12 00:39:44;;;;;;;7.10;5.70;;;9.90;99.90;;;;;;5073173;28;20533;-58
2022/04/12 00:42:11;;;;;;;7.93;5.80;;;9.90;99.90;;;;;;5075644;28;20444;-58
2022/04/12 00:44:38;;;;;;;9.53;7.53;;;9.80;99.90;;;;;;5077035;28;20443;-58
2022/04/12 00:47:06;;;;;;;7.07;6.13;;;9.70;99.90;;;;;;5076847;28;20444;-58
2022/04/12 00:49:33;;;;;;;7.67;6.07;;;9.70;99.90;;;;;;5076471;28;20486;-59
2022/04/12 00:52:01;;;;;;;10.87;6.67;;;9.80;99.90;;;;;;5076464;28;20872;-58
2022/04/12 00:54:31;;;;;;;7.47;6.77;;;9.70;99.90;;;;;;5076880;28;20440;-58
2022/04/12 00:56:58;;;;;;;8.40;6.80;;;9.60;99.90;;;;;;5076336;28;20460;-58
2022/04/12 00:59:26;;;;;;;7.70;6.50;;;9.70;99.90;;;;;;5076643;28;20451;-58
2022/04/12 01:01:54;;;;;;;6.53;5.97;;;9.70;99.90;;;;;;5076428;28;20540;-58
2022/04/12 01:04:21;;;;;;;7.53;6.73;;;9.60;99.90;;;;;;5076610;28;20450;-58
2022/04/12 01:06:48;;;;;;;11.40;6.70;;;9.60;99.90;;;;;;5076530;28;20569;-58
2022/04/12 01:09:16;;;;;;;13.03;6.97;;;9.60;99.90;;;;;;5076459;28;20838;-58
2022/04/12 01:11:48;;;;;;;9.60;6.23;;;9.50;99.90;;;;;;5076464;28;20531;-58
2022/04/12 01:14:16;;;;;;;7.10;6.27;;;9.50;99.90;;;;;;5076286;28;20425;-59
2022/04/12 01:16:43;;;;;;;7.20;6.17;;;9.40;99.90;;;;;;5076522;28;20447;-58
2022/04/12 01:19:10;;;;;;;8.27;6.50;;;9.50;99.90;;;;;;5075993;28;20555;-58
2022/04/12 01:21:43;;;;;;;7.53;6.70;;;9.50;99.90;;;;;;5075893;28;20448;-58
2022/04/12 01:24:13;;;;;;;7.37;6.57;;;9.40;99.90;;;;;;5076018;28;20432;-58
2022/04/12 01:26:41;;;;;;;6.97;5.70;;;9.40;99.90;;;;;;5076435;28;20555;-59
2022/04/12 01:29:08;;;;;;;7.13;6.03;;;9.40;99.90;;;;;;5075498;28;20986;-58
2022/04/12 01:31:35;;;;;;;10.30;7.30;;;9.40;99.90;;;;;;5076098;28;20444;-58
2022/04/12 01:34:02;;;;;;;8.63;7.00;;;9.30;99.90;;;;;;5075915;28;20523;-59
2022/04/12 01:36:29;;;;;;;7.27;5.83;;;9.30;99.90;;;;;;5075875;28;20445;-59
2022/04/12 01:38:56;;;;;;;8.67;6.30;;;9.20;99.90;;;;;;5075714;28;20481;-58
2022/04/12 01:41:25;;;;;;;7.87;5.93;;;9.30;99.90;;;;;;5075767;28;20850;-58
2022/04/12 01:43:52;;;;;;;8.67;7.20;;;9.30;99.90;;;;;;5075894;28;20451;-59
2022/04/12 01:46:19;;;;;;;7.87;7.03;;;9.30;99.90;;;;;;5075956;28;20471;-58
2022/04/12 01:48:48;;;;;;;8.40;6.47;;;9.20;99.90;;;;;;5075815;28;20484;-58
2022/04/12 01:51:15;;;;;;;12.50;6.90;;;9.10;99.90;;;;;;5075524;28;20449;-58
2022/04/12 01:53:42;;;;;;;9.27;7.30;;;9.10;99.90;;;;;;5074424;28;20542;-58
2022/04/12 01:56:09;;;;;;;8.33;6.17;;;9.10;99.90;;;;;;5075826;28;20459;-58
2022/04/12 01:58:38;;;;;;;10.20;7.17;;;9.00;99.90;;;;;;5075841;28;20471;-58
2022/04/12 02:01:05;;;;;;;7.50;6.80;;;8.90;99.90;;;;;;5075587;28;20935;-58
2022/04/12 02:03:37;;;;;;;7.40;6.60;;;8.90;99.90;;;;;;5075375;28;20858;-58
2022/04/12 02:06:05;;;;;;;9.00;6.27;;;9.00;99.90;;;;;;5075604;28;20780;-58
2022/04/12 02:08:32;;;;;;;7.27;6.10;;;9.00;99.90;;;;;;5074976;28;20487;-57
2022/04/12 02:10:59;;;;;;;10.83;6.50;;;9.10;99.90;;;;;;5075386;28;20886;-58
2022/04/12 02:13:26;;;;;;;7.50;6.70;;;9.00;99.90;;;;;;5075162;28;20918;-58
2022/04/12 02:15:55;;;;;;;8.30;6.20;;;9.00;99.90;;;;;;5075444;28;20453;-58
2022/04/12 02:18:22;;;;;;;6.30;5.70;;;8.90;99.90;;;;;;5075153;28;20464;-58
2022/04/12 02:20:49;;;;;;;8.27;6.70;;;8.90;99.90;;;;;;5074840;28;20455;-58
2022/04/12 02:23:16;;;;;;;8.33;6.53;;;8.80;99.90;;;;;;5075143;28;20468;-58
2022/04/12 02:25:43;;;;;;;11.87;7.53;;;8.80;99.90;;;;;;5074901;28;20463;-58
2022/04/12 02:28:10;;;;;;;7.43;6.63;;;8.80;99.90;;;;;;5074950;28;20555;-58
2022/04/12 02:30:38;;;;;;;8.80;7.33;;;8.70;99.90;;;;;;5074510;28;21017;-58
2022/04/12 02:33:06;;;;;;;8.20;6.60;;;8.60;99.90;;;;;;5074617;28;20451;-58
2022/04/12 02:35:34;;;;;;;10.17;7.43;;;8.70;99.90;;;;;;5074966;28;20454;-58
2022/04/12 02:38:01;;;;;;;7.53;6.70;;;8.60;99.90;;;;;;5074434;28;20556;-58
2022/04/12 02:40:28;;;;;;;7.73;6.80;;;8.50;99.90;;;;;;5074498;28;20949;-58
2022/04/12 02:42:55;;;;;;;9.17;8.20;;;8.50;99.90;;;;;;5074508;28;20451;-58
2022/04/12 02:45:22;;;;;;;8.43;6.20;;;8.50;99.90;;;;;;5074898;28;20446;-58
2022/04/12 02:47:50;;;;;;;9.90;6.60;;;8.60;99.90;;;;;;5074558;28;20469;-58
2022/04/12 02:50:18;;;;;;;8.33;6.93;;;8.60;99.90;;;;;;5074117;28;20982;-58
2022/04/12 02:52:45;;;;;;;7.40;6.57;;;8.60;99.90;;;;;;5074606;28;20456;-58
2022/04/12 02:55:12;;;;;;;8.27;6.97;;;8.60;99.90;;;;;;5074249;28;20456;-58
2022/04/12 02:57:39;;;;;;;7.87;6.97;;;8.50;99.90;;;;;;5074126;28;20971;-58
2022/04/12 03:00:08;;;;;;;9.03;7.23;;;8.40;99.90;;;;;;5074249;28;20931;-58
2022/04/12 03:02:35;;;;;;;8.00;6.53;;;8.30;99.90;;;;;;5074372;28;20450;-58
2022/04/12 03:05:02;;;;;;;8.17;7.10;;;8.30;99.90;;;;;;5073911;28;20445;-57
2022/04/12 03:07:31;;;;;;;7.93;6.87;;;8.30;99.90;;;;;;5074303;28;20570;-58
2022/04/12 03:09:58;;;;;;;7.80;6.30;;;8.30;99.90;;;;;;5074154;28;20488;-58
2022/04/12 03:12:25;;;;;;;10.93;6.93;;;8.30;99.90;;;;;;5074156;28;20444;-58
2022/04/12 03:14:52;;;;;;;6.53;5.83;;;8.20;99.90;;;;;;5074227;28;20444;-58
2022/04/12 03:17:20;;;;;;;6.73;6.13;;;8.30;99.90;;;;;;5074001;28;20464;-58
2022/04/12 03:19:47;;;;;;;12.87;7.13;;;8.30;99.90;;;;;;5074026;28;20866;-58
2022/04/12 03:22:14;;;;;;;8.10;6.07;;;8.10;99.90;;;;;;5074024;28;20539;-58
2022/04/12 03:24:45;;;;;;;8.97;6.50;;;8.10;99.90;;;;;;5073553;28;20454;-58
2022/04/12 03:27:12;;;;;;;9.90;6.90;;;8.10;99.90;;;;;;5073853;28;20432;-58
2022/04/12 03:29:39;;;;;;;10.13;9.13;;;8.00;99.90;;;;;;5073380;28;20494;-58
2022/04/12 03:32:07;;;;;;;7.87;6.80;;;8.00;99.90;;;;;;5073643;28;20448;-58
2022/04/12 03:34:35;;;;;;;8.40;7.50;;;8.00;99.90;;;;;;5073788;28;20449;-58
2022/04/12 03:37:03;;;;;;;8.47;7.67;;;8.10;99.90;;;;;;5073778;28;20449;-58
2022/04/12 03:39:30;;;;;;;8.30;7.27;;;8.00;99.90;;;;;;5073491;28;20447;-58
2022/04/12 03:41:59;;;;;;;8.97;7.43;;;8.10;99.90;;;;;;5073679;28;20454;-58
2022/04/12 03:44:26;;;;;;;8.73;7.60;;;8.10;99.90;;;;;;5073711;28;20475;-58
2022/04/12 03:46:53;;;;;;;8.57;7.47;;;;;;;;;;5073412;28;21014;-59
2022/04/12 03:49:20;;;;;;;8.80;7.53;;;8.10;99.90;;;;;;5073584;28;20488;-60
2022/04/12 03:51:47;;;;;;;8.43;6.40;;;8.00;99.90;;;;;;5073539;28;20454;-58
2022/04/12 03:54:14;;;;;;;9.00;6.90;;;8.00;99.90;;;;;;5073518;28;20451;-58
2022/04/12 03:56:43;;;;;;;7.97;7.17;;;7.90;99.90;;;;;;5073695;28;20460;-58
2022/04/12 03:59:12;;;;;;;6.97;6.30;;;7.90;99.90;;;;;;5073146;28;20870;-58
2022/04/12 04:01:41;;;;;;;7.27;6.57;;;8.00;99.90;;;;;;5073324;28;20456;-58
2022/04/12 04:04:09;;;;;;;6.63;6.03;;;7.90;99.90;;;;;;5073461;28;20482;-58
2022/04/12 04:06:36;;;;;;;7.80;6.67;;;7.80;99.90;;;;;;5073391;28;20474;-57
2022/04/12 04:09:04;;;;;;;7.90;6.57;;;7.90;99.90;;;;;;5073358;28;20488;-57
2022/04/12 04:11:31;;;;;;;7.37;6.67;;;8.00;99.90;;;;;;5073372;28;20444;-58
2022/04/12 04:14:00;;;;;;;8.77;6.67;;;8.10;99.90;;;;;;5073407;28;20448;-58
2022/04/12 04:16:29;;;;;;;13.23;6.67;;;8.00;99.90;;;;;;5074565;28;20957;-57
2022/04/12 04:18:56;;;;;;;7.60;6.80;;;7.90;99.90;;;;;;5077475;28;20467;-58
2022/04/12 04:21:23;;;;;;;7.97;7.27;;;7.90;99.90;;;;;;5076913;28;20531;-58
2022/04/12 04:23:50;;;;;;;8.90;6.80;;;7.90;99.90;;;;;;5077377;28;20448;-58
2022/04/12 04:26:17;;;;;;;10.90;6.50;;;8.00;99.90;;;;;;5077578;28;20462;-58
2022/04/12 04:28:45;;;;;;;6.70;6.00;;;8.00;99.90;;;;;;5076967;28;20487;-58
2022/04/12 04:31:12;;;;;;;6.67;6.00;;;8.00;99.90;;;;;;5076923;28;20973;-58
2022/04/12 04:33:40;;;;;;;7.70;6.30;;;7.90;99.90;;;;;;5077319;28;20449;-58
2022/04/12 04:36:08;;;;;;;9.50;6.47;;;8.00;99.90;;;;;;5076848;28;20448;-58
2022/04/12 04:38:35;;;;;;;6.87;6.23;;;7.80;99.90;;;;;;5076985;28;20498;-58
2022/04/12 04:41:02;;;;;;;7.73;6.60;;;7.80;99.90;;;;;;5076837;28;20447;-58
2022/04/12 04:43:29;;;;;;;8.33;6.50;;;7.90;99.90;;;;;;5076982;28;20447;-58
2022/04/12 04:45:57;;;;;;;11.20;7.10;;;7.90;99.90;;;;;;5076646;28;20448;-59
2022/04/12 04:48:24;;;;;;;9.27;8.13;;;7.80;99.90;;;;;;5076546;28;20471;-59
2022/04/12 04:50:52;;;;;;;7.60;6.90;;;7.80;99.90;;;;;;5076643;28;20480;-58
2022/04/12 04:53:20;;;;;;;13.90;7.13;;;7.70;99.90;;;;;;5076559;28;20489;-59
2022/04/12 04:55:47;;;;;;;17.57;9.03;;;7.70;99.90;;;;;;5076758;28;20466;-59
2022/04/12 04:58:15;;;;;;;9.47;6.50;;;7.70;99.90;;;;;;5076313;28;20468;-60
2022/04/12 05:00:43;;;;;;;8.00;7.30;;;7.70;99.90;;;;;;5076158;28;20502;-60
2022/04/12 05:03:10;;;;;;;8.93;7.40;;;7.70;99.90;;;;;;5076264;28;20458;-59
2022/04/12 05:05:38;;;;;;;8.10;7.20;;;7.80;99.90;;;;;;5076551;28;20535;-60
2022/04/12 05:08:07;;;;;;;7.90;7.10;;;7.70;99.90;;;;;;5076314;28;20500;-59
2022/04/12 05:10:34;;;;;;;7.80;7.10;;;7.80;99.90;;;;;;5075808;28;20990;-59
2022/04/12 05:13:03;;;;;;;9.63;7.13;;;7.80;99.90;;;;;;5076427;28;20451;-60
2022/04/12 05:15:30;;;;;;;8.90;8.10;;;7.80;99.90;;;;;;5076442;28;20448;-58
2022/04/12 05:17:58;;;;;;;9.43;7.47;;;7.90;99.90;;;;;;5076188;28;20515;-58
2022/04/12 05:20:26;;;;;;;8.27;7.47;;;7.90;99.90;;;;;;5075969;28;21030;-58
2022/04/12 05:22:54;;;;;;;8.30;7.27;;;7.90;99.90;;;;;;5076067;28;20448;-59
2022/04/12 05:25:25;;;;;;;8.23;6.90;;;7.90;99.90;;;;;;5076401;28;20456;-59
2022/04/12 05:27:52;;;;;;;8.50;7.60;;;7.90;99.90;;;;;;5075878;28;20482;-60
2022/04/12 05:30:21;;;;;;;8.97;8.07;;;7.80;99.90;;;;;;5075553;28;20492;-59
2022/04/12 05:32:48;;;;;;;8.07;7.27;;;7.80;99.90;;;;;;5075975;28;20490;-59
2022/04/12 05:35:16;;;;;;;8.80;6.73;;;7.90;99.90;;;;;;5075823;28;20486;-59
2022/04/12 05:37:45;;;;;;;10.43;7.83;;;8.00;99.90;;;;;;5075926;28;20470;-59
2022/04/12 05:40:13;;;;;;;11.00;7.43;;;8.00;99.90;;;;;;5075497;28;20481;-59
2022/04/12 05:42:42;;;;;;;9.70;8.40;;;8.10;99.90;;;;;;5075483;28;20988;-59
2022/04/12 05:45:10;;;;;;;8.80;7.90;;;8.10;99.90;;;;;;5075643;28;20453;-58
2022/04/12 05:47:44;;;;;;;8.60;7.40;;;8.20;99.90;;;;;;5075591;28;20958;-57
2022/04/12 05:50:14;;;;;;;9.00;7.30;;;8.20;99.90;;;;;;5075093;28;21033;-59
2022/04/12 05:52:42;;;;;;;11.40;7.77;;;8.30;99.90;;;;;;5075484;28;20444;-59
2022/04/12 05:55:12;;;;;;;7.33;6.63;;;8.30;99.90;;;;;;5075433;28;20464;-59
2022/04/12 05:57:39;;;;;;;8.00;6.73;;;8.40;99.90;;;;;;5075328;28;20464;-59
2022/04/12 06:00:10;;;;;;;11.10;9.00;;;8.40;99.90;;;;;;5075347;28;20444;-59
2022/04/12 06:02:37;;;;;;;13.83;8.00;;;8.50;99.90;;;;;;5075390;28;20449;-58
2022/04/12 06:05:05;;;;;;;11.73;8.37;;;8.60;99.90;;;;;;5074977;28;20449;-58
2022/04/12 06:07:34;;;;;;;10.57;8.90;;;8.70;99.90;;;;;;5075211;28;20547;-59
2022/04/12 06:10:02;;;;;;;9.40;8.00;;;8.80;99.90;;;;;;5075291;28;20833;-58
2022/04/12 06:12:29;;;;;;;9.50;7.53;;;8.90;99.90;;;;;;5074611;28;20449;-59
2022/04/12 06:14:56;;;;;;;10.90;7.63;;;8.90;99.90;;;;;;5074811;28;20928;-58
2022/04/12 06:17:30;;;;;;;10.40;7.90;;;8.90;99.90;;;;;;5074754;28;21050;-58
2022/04/12 06:20:02;;;;;;;10.50;7.93;;;9.10;99.90;;;;;;5074985;28;20433;-59
2022/04/12 06:22:29;;;;;;;10.03;7.67;;;9.20;99.90;;;;;;5074621;28;20455;-59
2022/04/12 06:24:57;;;;;;;11.97;7.90;;;9.40;99.90;;;;;;5074434;28;20474;-59
2022/04/12 06:27:32;;;;;;;9.03;7.73;;;9.50;99.90;;;;;;5074473;28;20475;-58
2022/04/12 06:30:03;;;;;;;10.17;8.40;;;9.60;99.90;;;;;;5074566;28;20513;-59
2022/04/12 06:32:31;;;;;;;8.53;7.73;;;9.70;99.90;;;;;;5074746;28;20451;-59
2022/04/12 06:34:59;;;;;;;11.53;7.80;;;9.70;99.90;;;;;;5074296;28;20448;-58
2022/04/12 06:37:26;;;;;;;9.33;8.33;;;9.80;99.90;;;;;;5074683;28;20464;-58
2022/04/12 06:39:53;;;;;;;8.93;8.03;;;9.80;99.90;;;;;;5073743;28;20447;-58
2022/04/12 06:42:21;;;;;;;9.40;8.40;;;9.90;99.90;;;;;;5073963;28;20955;-59
2022/04/12 06:44:48;;;;;;;10.77;8.73;;;10.10;99.90;;;;;;5074339;28;20459;-58
2022/04/12 06:47:16;;;;;;;9.07;8.17;;;10.10;99.90;;;;;;5074010;28;20448;-59
2022/04/12 06:49:45;;;;;;;21.23;7.93;;;10.20;99.90;;;;;;5074180;28;20501;-59
2022/04/12 06:52:13;;;;;;;9.40;7.80;;;10.20;99.90;;;;;;5074224;28;20449;-58
2022/04/12 06:54:40;;;;;;;9.23;8.03;;;10.40;99.90;;;;;;5073582;28;20974;-58
2022/04/12 06:57:08;;;;;;;9.23;7.57;;;10.50;99.90;;;;;;5074077;28;20446;-58
2022/04/12 06:59:36;;;;;;;8.40;7.60;;;10.70;99.90;;;;;;5074154;28;20539;-59
2022/04/12 07:02:03;;;;;;;8.30;7.60;;;10.80;99.90;;;;;;5074141;28;20451;-59
2022/04/12 07:04:31;;;;;;;9.77;8.17;;;10.90;99.90;;;;;;5073742;28;20440;-59
2022/04/12 07:07:00;;;;;;;9.43;8.20;;;10.80;99.90;;;;;;5073496;28;20449;-59
2022/04/12 07:09:28;;;;;;;10.27;8.13;;;10.80;99.90;;;;;;5073914;28;20431;-60
2022/04/12 07:11:56;;;;;;;10.80;7.40;;;10.90;99.90;;;;;;5073283;28;21049;-59
2022/04/12 07:14:24;;;;;;;10.57;8.13;;;11.10;99.90;;;;;;5073588;28;20444;-59
2022/04/12 07:16:51;;;;;;;11.70;7.10;;;11.10;99.90;;;;;;5073625;28;20452;-59
2022/04/12 07:19:18;;;;;;;8.73;7.00;;;11.30;99.90;;;;;;5073681;28;20555;-59
2022/04/12 07:21:46;;;;;;;7.80;7.00;;;11.40;99.60;;;;;;5073439;28;20452;-59
2022/04/12 07:24:15;;;;;;;7.53;6.70;;;11.50;99.90;;;;;;5073368;28;20448;-59
2022/04/12 07:26:42;;;;;;;9.30;7.60;;;11.60;99.40;;;;;;5073721;28;20463;-59
2022/04/12 07:29:09;;;;;;;9.80;7.70;;;11.70;99.10;;;;;;5073247;28;20484;-59
2022/04/12 07:31:36;;;;;;;7.90;7.10;;;11.80;99.20;;;;;;5073550;28;20483;-59
2022/04/12 07:34:04;;;;;;;9.17;7.40;;;11.80;98.80;;;;;;5073442;28;20459;-61
2022/04/12 07:36:31;;;;;;;12.27;7.10;;;11.90;98.80;;;;;;5073601;28;20483;-58
2022/04/12 07:39:01;;;;;;;8.50;6.97;;;12.10;98.50;;;;;;5073521;28;20474;-59
2022/04/12 07:41:30;;;;;;;7.13;6.50;;;12.20;98.50;;;;;;5073288;28;20472;-59
2022/04/12 07:43:57;;;;;;;10.07;7.17;;;12.40;98.00;;;;;;5072957;28;20876;-60
2022/04/12 07:46:26;;;;;;;7.20;6.50;;;12.40;97.70;;;;;;5073261;28;20501;-59
2022/04/12 07:48:53;;;;;;;8.83;5.80;;;12.50;97.30;;;;;;5073455;28;20471;-59
2022/04/12 07:51:20;;;;;;;8.10;6.50;;;12.40;96.90;;;;;;5072929;28;20480;-59
2022/04/12 07:53:47;;;;;;;9.17;6.20;;;12.60;97.00;;;;;;5073269;28;20448;-59
2022/04/12 07:56:14;;;;;;;7.20;6.50;;;12.60;96.60;;;;;;5073324;28;21021;-57
2022/04/12 07:58:43;;;;;;;7.47;5.80;;;12.70;96.50;;;;;;5073072;28;20555;-58
2022/04/12 08:01:10;;;;;;;7.87;6.97;;;12.80;96.20;;;;;;5072934;28;20448;-58
2022/04/12 08:03:40;;;;;;;5.90;5.43;;;13.00;96.40;;;;;;5073231;28;20448;-60
2022/04/12 08:06:07;;;;;;;7.63;6.87;;;13.20;95.50;;;;;;5073184;28;20455;-59
2022/04/12 08:08:35;;;;;;;15.63;7.00;;;13.20;95.70;;;;;;5073175;28;20559;-59
2022/04/12 08:11:02;;;;;;;12.30;6.90;;;13.50;95.40;;;;;;5073199;28;20507;-59
2022/04/12 08:13:29;;;;;;;7.73;6.20;;;13.70;94.60;;;;;;5073130;28;20539;-59
2022/04/12 08:15:58;;;;;;;8.90;6.30;;;13.80;94.60;;;;;;5073281;28;20444;-59
2022/04/12 08:18:26;;;;;;;7.53;5.80;;;13.80;94.00;;;;;;5072834;28;20464;-59
2022/04/12 08:20:54;;;;;;;8.50;5.83;;;14.10;94.00;;;;;;5072923;28;20544;-59
2022/04/12 08:23:22;;;;;;;6.90;5.90;;;14.20;93.50;;;;;;5072813;28;20817;-59
2022/04/12 08:25:50;;;;;;;10.10;5.77;;;14.30;94.80;;;;;;5072940;28;20842;-59
2022/04/12 08:28:17;;;;;;;6.17;5.57;;;14.50;93.50;;;;;;5072479;28;20955;-59
2022/04/12 08:30:44;;;;;;;7.43;5.90;;;14.40;93.10;;;;;;5072924;28;20487;-59
2022/04/12 08:33:13;;;;;;;9.63;5.77;;;14.50;93.70;;;;;;5072443;28;20932;-59
2022/04/12 08:35:40;;;;;;;7.17;6.43;;;14.60;93.60;;;;;;5072609;28;21022;-58
2022/04/12 08:38:07;;;;;;;5.97;5.00;;;15.00;93.40;;;;;;5072688;28;20467;-59
2022/04/12 08:40:36;;;;;;;7.00;5.70;;;15.40;93.20;;;;;;5072252;28;20968;-60
2022/04/12 08:43:03;;;;;;;5.67;4.80;;;15.80;92.50;;;;;;5072526;28;20931;-59
2022/04/12 08:45:31;;;;;;;17.93;6.10;;;16.50;91.40;;;;;;5072691;28;20453;-59
2022/04/12 08:48:00;;;;;;;6.73;5.53;;;17.20;89.30;;;;;;5072256;28;20551;-59
2022/04/12 08:50:29;;;;;;;6.57;5.43;;;17.70;87.60;;;;;;5072753;28;20444;-59
2022/04/12 08:52:57;;;;;;;8.20;6.87;;;17.90;84.40;;;;;;5072204;28;20927;-59
2022/04/12 08:55:25;;;;;;;7.10;5.57;;;18.00;84.80;;;;;;5072325;28;20506;-60
2022/04/12 08:57:52;;;;;;;9.87;6.00;;;18.70;85.70;;;;;;5072661;28;20464;-59
2022/04/12 09:00:19;;;;;;;6.83;6.10;;;19.20;80.40;;;;;;5072335;28;20446;-59
2022/04/12 09:02:57;;;;;;;12.13;6.10;;;19.10;81.20;;;;;;5074053;28;20534;-59
2022/04/12 09:05:25;;;;;;;8.30;5.80;;;19.50;81.20;;;;;;5076116;28;20424;-59
2022/04/12 09:07:53;;;;;;;6.00;5.40;;;19.60;80.00;;;;;;5076117;28;20846;-59
2022/04/12 09:10:25;;;;;;;8.93;5.80;;;20.00;78.40;;;;;;5075871;28;20966;-59
2022/04/12 09:12:53;;;;;;;9.80;5.77;;;19.30;76.60;;;;;;5076150;28;20443;-59
2022/04/12 09:15:23;;;;;;;6.40;5.80;;;19.40;79.60;;;;;;5075949;28;20805;-59
2022/04/12 09:17:50;;;;;;;7.30;5.53;;;19.40;80.20;;;;;;5076067;28;20988;-59
2022/04/12 09:20:19;;;;;;;6.93;6.10;;;19.60;80.40;;;;;;5076046;28;20447;-59
2022/04/12 09:22:47;;;;;;;8.00;5.37;;;19.60;76.60;;;;;;5075742;28;20491;-59
2022/04/12 09:25:17;;;;;;;6.53;5.13;;;19.80;76.40;;;;;;5075838;28;20451;-59
2022/04/12 09:27:49;;;;;;;5.63;5.03;;;20.40;73.50;;;;;;5075827;28;20551;-59
2022/04/12 09:30:17;;;;;;;9.40;5.40;;;21.50;76.00;;;;;;5074521;28;20480;-59
2022/04/12 09:32:47;;;;;;;8.27;4.77;;;22.10;69.50;;;;;;5075718;28;20479;-59
2022/04/12 09:35:15;;;;;;;5.97;4.60;;;22.50;69.00;;;;;;5075654;28;20448;-59
2022/04/12 09:37:43;;;;;;;7.07;5.10;;;22.80;72.10;;;;;;5075686;28;20471;-59
2022/04/12 09:40:12;;;;;;;11.10;5.60;;;22.60;62.80;;;;;;5075409;28;20533;-59
2022/04/12 09:42:44;;;;;;;5.03;4.63;;;22.20;65.10;;;;;;5075381;28;20490;-59
2022/04/12 09:45:13;;;;;;;6.23;5.53;;;23.00;62.80;;;;;;5075509;28;20524;-59
2022/04/12 09:47:42;;;;;;;8.73;5.07;;;23.10;59.00;;;;;;5075113;28;20464;-59
2022/04/12 09:50:10;;;;;;;4.30;3.90;;;23.40;61.10;;;;;;5075373;28;20456;-59
2022/04/12 09:52:38;;;;;;;6.27;4.70;;;23.80;58.90;;;;;;5075215;28;20487;-59
2022/04/12 09:55:07;;;;;;;5.20;4.70;;;23.20;58.90;;;;;;5075217;28;20452;-60
2022/04/12 09:57:35;;;;;;;4.90;4.40;;;23.70;57.30;;;;;;5075153;28;20521;-60
2022/04/12 10:00:05;;;;;;;5.90;3.97;;;23.60;57.30;;;;;;5075286;28;20536;-60
2022/04/12 10:02:35;;;;;;;7.60;5.03;;;23.20;58.30;;;;;;5075408;28;20447;-59
2022/04/12 10:05:05;;;;;;;4.93;4.33;;;22.60;57.60;;;;;;5075278;28;20462;-59
2022/04/12 10:07:34;;;;;;;6.43;5.53;;;22.50;58.90;;;;;;5075315;28;20578;-60
2022/04/12 10:10:04;;;;;;;7.33;5.50;;;22.00;59.00;;;;;;5075025;28;20448;-59
2022/04/12 10:12:32;;;;;;;7.40;5.67;;;22.00;59.40;;;;;;5075061;28;20484;-60
2022/04/12 10:15:00;;;;;;;5.10;4.50;;;22.00;58.30;;;;;;5073717;28;20455;-59
2022/04/12 10:17:28;;;;;;;5.97;4.90;;;22.20;58.30;;;;;;5075079;28;20495;-60
2022/04/12 10:19:56;;;;;;;5.43;4.93;;;22.80;58.60;;;;;;5074733;28;20444;-59
2022/04/12 10:22:26;;;;;;;6.10;3.90;;;23.00;60.30;;;;;;5074746;28;20449;-61
2022/04/12 10:24:54;;;;;;;5.23;4.37;;;23.60;59.30;;;;;;5074903;28;20535;-60
2022/04/12 10:27:23;;;;;;;4.80;3.87;;;23.80;57.50;;;;;;5074817;28;20479;-60
2022/04/12 10:30:25;;;;;;;6.90;4.67;;;24.00;56.10;;;;;;5074263;28;20874;-60
2022/04/12 10:33:02;;;;;;;4.27;3.40;;;24.00;57.00;;;;;;5074382;28;20529;-60
2022/04/12 10:35:58;;;;;;;7.43;3.77;;;24.50;56.60;;;;;;5074243;28;20420;-60
2022/04/12 10:38:27;;;;;;;4.17;3.50;;;24.40;55.10;;;;;;5074690;28;20469;-61
2022/04/12 10:40:56;;;;;;;5.30;3.50;;;24.30;54.90;;;;;;5074231;28;20502;-60
2022/04/12 10:43:30;;;;;;;5.33;4.20;;;24.60;56.80;;;;;;5074429;28;20460;-60
2022/04/12 10:45:58;;;;;;;5.10;3.40;;;24.50;55.20;;;;;;5074298;28;20443;-60
2022/04/12 10:48:29;;;;;;;4.30;3.43;;;24.80;55.00;;;;;;5073990;28;20464;-60
2022/04/12 10:50:59;;;;;;;4.77;3.33;;;24.70;56.60;;;;;;5074183;28;20435;-60
2022/04/12 10:53:53;;;;;;;9.23;3.93;;;24.60;54.80;;;;;;5074141;28;20444;-60
2022/04/12 10:56:25;;;;;;;3.50;3.20;;;25.00;53.70;;;;;;5068126;28;20456;-60
2022/04/12 10:58:52;;;;;;;4.47;2.83;;;25.50;52.60;;;;;;5073915;28;20468;-60
2022/04/12 11:01:31;;;;;;;4.00;3.60;;;24.90;51.40;;;;;;5074057;28;20531;-60
2022/04/12 11:04:01;;;;;;;7.20;4.13;;;25.20;51.60;;;;;;5073989;28;20443;-60
2022/04/12 11:06:30;;;;;;;6.13;2.90;;;24.90;51.80;;;;;;5073910;28;20425;-60
2022/04/12 11:09:09;;;;;;;3.73;3.10;;;24.60;49.90;;;;;;5073741;28;20464;-60
2022/04/12 11:11:40;;;;;;;5.03;3.27;;;24.70;50.10;;;;;;5073474;28;20464;-60
2022/04/12 11:14:27;;;;;;;3.40;2.90;;;24.10;49.70;;;;;;5073639;28;20783;-60
2022/04/12 11:17:00;;;;;;;4.47;3.00;;;24.30;48.90;;;;;;5073404;28;20490;-60
2022/04/12 11:19:40;;;;;;;3.20;2.90;;;23.80;48.80;;;;;;5073320;28;20433;-60
2022/04/12 11:22:13;;;;;;;3.80;2.40;;;23.40;49.60;;;;;;5073161;28;20431;-60
2022/04/12 11:24:40;;;;;;;3.03;2.73;;;23.10;49.30;;;;;;5072809;28;20914;-60
2022/04/12 11:27:09;;;;;;;3.37;2.70;;;23.60;50.80;;;;;;5073428;28;20927;-60
2022/04/12 11:29:37;;;;;;;2.60;2.40;;;23.30;49.10;;;;;;5073147;28;20480;-59
2022/04/12 11:32:05;;;;;;;3.43;2.87;;;23.40;50.70;;;;;;5073313;28;20480;-60
2022/04/12 11:34:37;;;;;;;3.17;2.87;;;23.50;49.00;;;;;;5073394;28;20444;-59
2022/04/12 11:37:08;;;;;;;3.87;2.93;;;23.90;50.60;;;;;;5073420;28;20444;-59
2022/04/12 11:39:39;;;;;;;4.03;2.53;;;24.00;48.90;;;;;;5073413;28;20547;-60
2022/04/12 11:42:08;;;;;;;3.50;2.73;;;24.00;50.10;;;;;;5073480;28;20495;-59
2022/04/12 11:44:35;;;;;;;5.00;2.47;;;24.20;50.50;;;;;;5072930;28;20813;-60
2022/04/12 11:47:05;;;;;;;7.80;3.50;;;23.70;50.40;;;;;;5072991;28;20448;-59
2022/04/12 11:49:37;;;;;;;3.60;2.60;;;23.50;49.20;;;;;;5072818;28;20458;-59
2022/04/12 11:52:06;;;;;;;4.70;2.40;;;23.50;50.60;;;;;;5072985;28;20464;-59
2022/04/12 11:54:34;;;;;;;3.33;2.80;;;23.90;50.50;;;;;;5073357;28;20474;-59
2022/04/12 11:57:03;;;;;;;2.60;2.40;;;24.10;50.00;;;;;;5073471;28;20459;-59
2022/04/12 11:59:34;;;;;;;3.40;2.50;;;24.10;50.00;;;;;;5073215;28;20448;-60
2022/04/12 12:02:02;;;;;;;3.40;3.10;;;23.90;48.80;;;;;;5073308;28;20512;-59
2022/04/12 12:04:31;;;;;;;5.30;2.20;;;23.90;50.40;;;;;;5072934;28;20444;-59
2022/04/12 12:07:02;;;;;;;3.90;2.97;;;23.80;50.00;;;;;;5072651;28;20495;-59
2022/04/12 12:09:30;;;;;;;7.00;2.90;;;23.90;49.50;;;;;;5073178;28;20520;-59
2022/04/12 12:12:02;;;;;;;3.43;2.43;;;23.80;50.00;;;;;;5072807;28;20994;-60
2022/04/12 12:14:30;;;;;;;3.43;2.23;;;24.20;49.80;;;;;;5072615;28;20943;-59
2022/04/12 12:17:02;;;;;;;4.50;2.43;;;24.00;50.50;;;;;;5072886;28;20448;-59
2022/04/12 12:19:33;;;;;;;3.50;2.60;;;23.90;50.70;;;;;;5072663;28;20444;-60
2022/04/12 12:22:03;;;;;;;5.10;2.90;;;23.70;49.90;;;;;;5072958;28;20429;-60
2022/04/12 12:24:34;;;;;;;2.80;2.30;;;23.50;49.40;;;;;;5072475;28;20456;-60
2022/04/12 12:27:03;;;;;;;2.63;2.40;;;23.40;49.20;;;;;;5072823;28;20488;-59
2022/04/12 12:29:30;;;;;;;3.60;3.20;;;23.50;49.50;;;;;;5072746;28;20555;-59
2022/04/12 12:31:57;;;;;;;2.87;2.33;;;23.60;49.80;;;;;;5072384;28;20484;-60
2022/04/12 12:34:29;;;;;;;6.00;2.10;;;23.60;50.00;;;;;;5072770;28;20455;-60
2022/04/12 12:36:56;;;;;;;2.63;2.40;;;24.00;51.00;;;;;;5073317;28;20809;-60
2022/04/12 12:39:28;;;;;;;2.43;2.23;;;24.00;50.30;;;;;;5077089;28;20448;-59
2022/04/12 12:41:58;;;;;;;2.80;2.37;;;24.20;51.60;;;;;;5076946;28;20814;-60
2022/04/12 12:44:33;;;;;;;6.83;2.70;;;24.50;51.70;;;;;;5076092;28;20455;-59
2022/04/12 12:47:03;;;;;;;5.67;3.10;;;24.60;50.80;;;;;;5076311;28;20515;-60
2022/04/12 12:49:37;;;;;;;6.33;2.47;;;24.60;50.50;;;;;;5076923;28;20535;-60
2022/04/12 12:52:05;;;;;;;4.70;2.70;;;24.20;51.10;;;;;;5076550;28;20468;-59
2022/04/12 12:54:34;;;;;;;2.77;2.57;;;24.10;51.30;;;;;;5076229;28;20907;-60
2022/04/12 12:57:03;;;;;;;2.70;2.50;;;23.60;51.10;;;;;;5076934;28;20452;-59
2022/04/12 12:59:32;;;;;;;2.80;2.33;;;23.60;51.40;;;;;;5076611;28;20474;-59